sensor_id;sensor_type;location;lat;lon;timestamp;P1;durP1;ratioP1;P2;durP2;ratioP2
12986;SDS011;58897;51.960;5.582;2023-04-15T00:00:56;10.53;;;5.17;;
12986;SDS011;58897;51.960;5.582;2023-04-15T00:03:23;10.33;;;4.83;;
12986;SDS011;58897;51.960;5.582;2023-04-15T00:05:50;13.50;;;5.47;;
12986;SDS011;58897;51.960;5.582;2023-04-15T00:08:18;10.97;;;4.43;;
12986;SDS011;58897;51.960;5.582;2023-04-15T00:10:45;9.97;;;5.23;;
12986;SDS011;58897;51.960;5.582;2023-04-15T00:13:12;11.27;;;5.33;;
12986;SDS011;58897;51.960;5.582;2023-04-15T00:15:38;9.10;;;4.97;;
12986;SDS011;58897;51.960;5.582;2023-04-15T00:18:05;9.63;;;4.97;;
12986;SDS011;58897;51.960;5.582;2023-04-15T00:20:33;13.63;;;5.93;;
12986;SDS011;58897;51.960;5.582;2023-04-15T00:23:00;11.73;;;5.73;;
12986;SDS011;58897;51.960;5.582;2023-04-15T00:25:29;8.27;;;4.93;;
12986;SDS011;58897;51.960;5.582;2023-04-15T00:27:55;7.57;;;4.53;;
12986;SDS011;58897;51.960;5.582;2023-04-15T00:30:22;7.67;;;4.47;;
12986;SDS011;58897;51.960;5.582;2023-04-15T00:32:49;8.30;;;4.97;;
12986;SDS011;58897;51.960;5.582;2023-04-15T00:35:16;9.90;;;4.87;;
12986;SDS011;58897;51.960;5.582;2023-04-15T00:37:42;11.10;;;5.87;;
12986;SDS011;58897;51.960;5.582;2023-04-15T00:40:11;9.60;;;4.67;;
12986;SDS011;58897;51.960;5.582;2023-04-15T00:42:39;10.07;;;4.87;;
12986;SDS011;58897;51.960;5.582;2023-04-15T00:45:06;9.37;;;4.63;;
12986;SDS011;58897;51.960;5.582;2023-04-15T00:47:34;11.87;;;5.33;;
12986;SDS011;58897;51.960;5.582;2023-04-15T00:50:02;6.37;;;4.10;;
12986;SDS011;58897;51.960;5.582;2023-04-15T00:52:30;8.03;;;4.73;;
12986;SDS011;58897;51.960;5.582;2023-04-15T00:54:57;9.20;;;4.93;;
12986;SDS011;58897;51.960;5.582;2023-04-15T00:57:24;12.03;;;5.37;;
12986;SDS011;58897;51.960;5.582;2023-04-15T00:59:52;9.60;;;5.00;;
12986;SDS011;58897;51.960;5.582;2023-04-15T01:02:19;6.77;;;4.17;;
12986;SDS011;58897;51.960;5.582;2023-04-15T01:04:46;8.30;;;4.70;;
12986;SDS011;58897;51.960;5.582;2023-04-15T01:07:12;8.33;;;4.40;;
12986;SDS011;58897;51.960;5.582;2023-04-15T01:09:40;7.77;;;4.33;;
12986;SDS011;58897;51.960;5.582;2023-04-15T01:12:07;10.10;;;5.00;;
12986;SDS011;58897;51.960;5.582;2023-04-15T01:14:37;9.73;;;5.03;;
12986;SDS011;58897;51.960;5.582;2023-04-15T01:17:03;6.87;;;4.03;;
12986;SDS011;58897;51.960;5.582;2023-04-15T01:19:30;10.10;;;3.70;;
12986;SDS011;58897;51.960;5.582;2023-04-15T01:21:57;5.60;;;3.70;;
12986;SDS011;58897;51.960;5.582;2023-04-15T01:24:24;8.57;;;4.60;;
12986;SDS011;58897;51.960;5.582;2023-04-15T01:26:53;11.17;;;4.93;;
12986;SDS011;58897;51.960;5.582;2023-04-15T01:29:19;10.00;;;5.30;;
12986;SDS011;58897;51.960;5.582;2023-04-15T01:31:49;9.37;;;5.47;;
12986;SDS011;58897;51.960;5.582;2023-04-15T01:34:17;13.73;;;6.13;;
12986;SDS011;58897;51.960;5.582;2023-04-15T01:36:44;11.57;;;6.47;;
12986;SDS011;58897;51.960;5.582;2023-04-15T01:39:11;13.47;;;6.23;;
12986;SDS011;58897;51.960;5.582;2023-04-15T01:41:38;11.77;;;7.20;;
12986;SDS011;58897;51.960;5.582;2023-04-15T01:44:06;10.20;;;5.37;;
12986;SDS011;58897;51.960;5.582;2023-04-15T01:46:33;10.67;;;5.57;;
12986;SDS011;58897;51.960;5.582;2023-04-15T01:49:00;10.20;;;5.83;;
12986;SDS011;58897;51.960;5.582;2023-04-15T01:51:27;11.33;;;5.20;;
12986;SDS011;58897;51.960;5.582;2023-04-15T01:53:54;10.67;;;5.43;;
12986;SDS011;58897;51.960;5.582;2023-04-15T01:56:22;12.37;;;5.73;;
12986;SDS011;58897;51.960;5.582;2023-04-15T01:58:51;11.07;;;5.47;;
12986;SDS011;58897;51.960;5.582;2023-04-15T02:01:18;11.90;;;5.07;;
12986;SDS011;58897;51.960;5.582;2023-04-15T02:03:45;12.23;;;5.80;;
12986;SDS011;58897;51.960;5.582;2023-04-15T02:06:13;10.10;;;5.50;;
12986;SDS011;58897;51.960;5.582;2023-04-15T02:08:40;11.27;;;5.17;;
12986;SDS011;58897;51.960;5.582;2023-04-15T02:11:06;7.83;;;5.03;;
12986;SDS011;58897;51.960;5.582;2023-04-15T02:13:33;10.47;;;5.13;;
12986;SDS011;58897;51.960;5.582;2023-04-15T02:16:00;9.07;;;4.67;;
12986;SDS011;58897;51.960;5.582;2023-04-15T02:18:27;12.70;;;5.67;;
12986;SDS011;58897;51.960;5.582;2023-04-15T02:20:53;9.70;;;4.97;;
12986;SDS011;58897;51.960;5.582;2023-04-15T02:23:21;11.20;;;5.03;;
12986;SDS011;58897;51.960;5.582;2023-04-15T02:25:48;10.23;;;5.40;;
12986;SDS011;58897;51.960;5.582;2023-04-15T02:28:19;9.53;;;5.07;;
12986;SDS011;58897;51.960;5.582;2023-04-15T02:30:48;10.57;;;5.53;;
12986;SDS011;58897;51.960;5.582;2023-04-15T02:33:19;13.60;;;5.87;;
12986;SDS011;58897;51.960;5.582;2023-04-15T02:35:47;12.57;;;6.23;;
12986;SDS011;58897;51.960;5.582;2023-04-15T02:38:13;12.87;;;5.20;;
12986;SDS011;58897;51.960;5.582;2023-04-15T02:40:41;9.23;;;5.17;;
12986;SDS011;58897;51.960;5.582;2023-04-15T02:43:08;7.97;;;4.40;;
12986;SDS011;58897;51.960;5.582;2023-04-15T02:45:34;9.17;;;4.67;;
12986;SDS011;58897;51.960;5.582;2023-04-15T02:48:01;8.90;;;4.87;;
12986;SDS011;58897;51.960;5.582;2023-04-15T02:50:31;7.10;;;4.50;;
12986;SDS011;58897;51.960;5.582;2023-04-15T02:52:58;8.30;;;4.93;;
12986;SDS011;58897;51.960;5.582;2023-04-15T02:55:27;9.40;;;5.07;;
12986;SDS011;58897;51.960;5.582;2023-04-15T02:57:54;8.57;;;4.83;;
12986;SDS011;58897;51.960;5.582;2023-04-15T03:00:21;7.87;;;4.60;;
12986;SDS011;58897;51.960;5.582;2023-04-15T03:02:50;6.37;;;4.17;;
12986;SDS011;58897;51.960;5.582;2023-04-15T03:05:21;8.27;;;4.70;;
12986;SDS011;58897;51.960;5.582;2023-04-15T03:07:51;7.80;;;4.43;;
12986;SDS011;58897;51.960;5.582;2023-04-15T03:10:18;10.60;;;4.90;;
12986;SDS011;58897;51.960;5.582;2023-04-15T03:12:45;11.70;;;5.90;;
12986;SDS011;58897;51.960;5.582;2023-04-15T03:15:11;13.70;;;6.17;;
12986;SDS011;58897;51.960;5.582;2023-04-15T03:17:38;11.13;;;5.27;;
12986;SDS011;58897;51.960;5.582;2023-04-15T03:20:05;7.17;;;4.30;;
12986;SDS011;58897;51.960;5.582;2023-04-15T03:22:32;9.30;;;5.27;;
12986;SDS011;58897;51.960;5.582;2023-04-15T03:24:59;9.23;;;5.10;;
12986;SDS011;58897;51.960;5.582;2023-04-15T03:27:25;9.63;;;5.20;;
12986;SDS011;58897;51.960;5.582;2023-04-15T03:29:52;11.47;;;6.10;;
12986;SDS011;58897;51.960;5.582;2023-04-15T03:32:18;9.83;;;5.53;;
12986;SDS011;58897;51.960;5.582;2023-04-15T03:34:45;13.60;;;6.60;;
12986;SDS011;58897;51.960;5.582;2023-04-15T03:37:11;15.10;;;6.47;;
12986;SDS011;58897;51.960;5.582;2023-04-15T03:39:38;11.00;;;5.60;;
12986;SDS011;58897;51.960;5.582;2023-04-15T03:42:04;11.57;;;5.17;;
12986;SDS011;58897;51.960;5.582;2023-04-15T03:44:31;10.53;;;5.47;;
12986;SDS011;58897;51.960;5.582;2023-04-15T03:46:58;10.63;;;5.70;;
12986;SDS011;58897;51.960;5.582;2023-04-15T03:49:24;10.90;;;5.80;;
12986;SDS011;58897;51.960;5.582;2023-04-15T03:51:51;13.43;;;6.40;;
12986;SDS011;58897;51.960;5.582;2023-04-15T03:54:17;8.37;;;4.90;;
12986;SDS011;58897;51.960;5.582;2023-04-15T03:56:44;11.20;;;5.17;;
12986;SDS011;58897;51.960;5.582;2023-04-15T03:59:10;12.57;;;6.20;;
12986;SDS011;58897;51.960;5.582;2023-04-15T04:01:37;12.97;;;5.40;;
12986;SDS011;58897;51.960;5.582;2023-04-15T04:04:03;10.37;;;5.27;;
12986;SDS011;58897;51.960;5.582;2023-04-15T04:06:30;9.43;;;5.33;;
12986;SDS011;58897;51.960;5.582;2023-04-15T04:08:56;14.43;;;6.73;;
12986;SDS011;58897;51.960;5.582;2023-04-15T04:11:23;13.67;;;6.47;;
12986;SDS011;58897;51.960;5.582;2023-04-15T04:13:49;11.90;;;5.87;;
12986;SDS011;58897;51.960;5.582;2023-04-15T04:16:16;13.27;;;6.77;;
12986;SDS011;58897;51.960;5.582;2023-04-15T04:18:42;11.57;;;5.80;;
12986;SDS011;58897;51.960;5.582;2023-04-15T04:21:09;14.87;;;7.30;;
12986;SDS011;58897;51.960;5.582;2023-04-15T04:23:36;13.37;;;6.80;;
12986;SDS011;58897;51.960;5.582;2023-04-15T04:26:02;14.37;;;6.83;;
12986;SDS011;58897;51.960;5.582;2023-04-15T04:28:29;14.57;;;7.40;;
12986;SDS011;58897;51.960;5.582;2023-04-15T04:30:55;15.63;;;6.60;;
12986;SDS011;58897;51.960;5.582;2023-04-15T04:33:22;15.10;;;7.07;;
12986;SDS011;58897;51.960;5.582;2023-04-15T04:35:48;11.90;;;6.60;;
12986;SDS011;58897;51.960;5.582;2023-04-15T04:38:15;14.23;;;7.03;;
12986;SDS011;58897;51.960;5.582;2023-04-15T04:40:41;17.60;;;7.73;;
12986;SDS011;58897;51.960;5.582;2023-04-15T04:43:08;18.43;;;8.17;;
12986;SDS011;58897;51.960;5.582;2023-04-15T04:45:35;16.47;;;7.83;;
12986;SDS011;58897;51.960;5.582;2023-04-15T04:48:01;15.07;;;6.43;;
12986;SDS011;58897;51.960;5.582;2023-04-15T04:50:32;13.20;;;7.30;;
12986;SDS011;58897;51.960;5.582;2023-04-15T04:52:59;16.47;;;8.20;;
12986;SDS011;58897;51.960;5.582;2023-04-15T04:55:26;11.87;;;6.63;;
12986;SDS011;58897;51.960;5.582;2023-04-15T04:57:53;17.03;;;8.00;;
12986;SDS011;58897;51.960;5.582;2023-04-15T05:00:20;17.20;;;7.13;;
12986;SDS011;58897;51.960;5.582;2023-04-15T05:02:46;17.00;;;7.67;;
12986;SDS011;58897;51.960;5.582;2023-04-15T05:05:13;18.20;;;8.17;;
12986;SDS011;58897;51.960;5.582;2023-04-15T05:07:40;13.53;;;7.70;;
12986;SDS011;58897;51.960;5.582;2023-04-15T05:10:07;12.03;;;7.07;;
12986;SDS011;58897;51.960;5.582;2023-04-15T05:12:34;13.50;;;6.90;;
12986;SDS011;58897;51.960;5.582;2023-04-15T05:15:02;12.80;;;7.13;;
12986;SDS011;58897;51.960;5.582;2023-04-15T05:17:30;11.87;;;6.97;;
12986;SDS011;58897;51.960;5.582;2023-04-15T05:19:58;13.80;;;6.23;;
12986;SDS011;58897;51.960;5.582;2023-04-15T05:22:25;13.07;;;6.80;;
12986;SDS011;58897;51.960;5.582;2023-04-15T05:24:51;14.80;;;7.37;;
12986;SDS011;58897;51.960;5.582;2023-04-15T05:27:18;17.33;;;8.27;;
12986;SDS011;58897;51.960;5.582;2023-04-15T05:29:45;15.70;;;7.20;;
12986;SDS011;58897;51.960;5.582;2023-04-15T05:32:11;11.67;;;6.60;;
12986;SDS011;58897;51.960;5.582;2023-04-15T05:34:38;12.63;;;6.97;;
12986;SDS011;58897;51.960;5.582;2023-04-15T05:37:04;8.30;;;5.13;;
12986;SDS011;58897;51.960;5.582;2023-04-15T05:39:31;13.63;;;6.37;;
12986;SDS011;58897;51.960;5.582;2023-04-15T05:41:58;12.50;;;6.57;;
12986;SDS011;58897;51.960;5.582;2023-04-15T05:44:25;14.90;;;7.30;;
12986;SDS011;58897;51.960;5.582;2023-04-15T05:46:52;15.17;;;7.50;;
12986;SDS011;58897;51.960;5.582;2023-04-15T05:49:18;15.43;;;7.57;;
12986;SDS011;58897;51.960;5.582;2023-04-15T05:51:46;13.73;;;6.60;;
12986;SDS011;58897;51.960;5.582;2023-04-15T05:54:13;13.63;;;7.50;;
12986;SDS011;58897;51.960;5.582;2023-04-15T05:56:39;14.67;;;7.57;;
12986;SDS011;58897;51.960;5.582;2023-04-15T05:59:06;16.53;;;8.40;;
12986;SDS011;58897;51.960;5.582;2023-04-15T06:01:32;12.80;;;7.00;;
12986;SDS011;58897;51.960;5.582;2023-04-15T06:04:00;10.50;;;6.53;;
12986;SDS011;58897;51.960;5.582;2023-04-15T06:06:27;11.13;;;6.77;;
12986;SDS011;58897;51.960;5.582;2023-04-15T06:08:53;14.93;;;7.80;;
12986;SDS011;58897;51.960;5.582;2023-04-15T06:11:21;14.17;;;7.23;;
12986;SDS011;58897;51.960;5.582;2023-04-15T06:13:47;18.10;;;8.50;;
12986;SDS011;58897;51.960;5.582;2023-04-15T06:16:14;14.73;;;7.23;;
12986;SDS011;58897;51.960;5.582;2023-04-15T06:18:41;13.57;;;6.97;;
12986;SDS011;58897;51.960;5.582;2023-04-15T06:21:07;11.23;;;6.33;;
12986;SDS011;58897;51.960;5.582;2023-04-15T06:23:34;14.37;;;7.00;;
12986;SDS011;58897;51.960;5.582;2023-04-15T06:26:01;16.27;;;6.57;;
12986;SDS011;58897;51.960;5.582;2023-04-15T06:28:28;16.13;;;7.43;;
12986;SDS011;58897;51.960;5.582;2023-04-15T06:30:55;13.93;;;7.00;;
12986;SDS011;58897;51.960;5.582;2023-04-15T06:33:22;15.87;;;7.53;;
12986;SDS011;58897;51.960;5.582;2023-04-15T06:35:49;12.87;;;7.23;;
12986;SDS011;58897;51.960;5.582;2023-04-15T06:38:16;11.70;;;6.57;;
12986;SDS011;58897;51.960;5.582;2023-04-15T06:40:42;9.30;;;5.63;;
12986;SDS011;58897;51.960;5.582;2023-04-15T06:43:09;11.20;;;6.33;;
12986;SDS011;58897;51.960;5.582;2023-04-15T06:45:35;11.70;;;6.87;;
12986;SDS011;58897;51.960;5.582;2023-04-15T06:48:02;13.80;;;6.77;;
12986;SDS011;58897;51.960;5.582;2023-04-15T06:50:28;15.33;;;7.43;;
12986;SDS011;58897;51.960;5.582;2023-04-15T06:52:55;17.03;;;8.70;;
12986;SDS011;58897;51.960;5.582;2023-04-15T06:55:22;13.63;;;7.33;;
12986;SDS011;58897;51.960;5.582;2023-04-15T06:57:49;15.53;;;8.40;;
12986;SDS011;58897;51.960;5.582;2023-04-15T07:00:15;11.87;;;6.43;;
12986;SDS011;58897;51.960;5.582;2023-04-15T07:02:43;8.70;;;6.03;;
12986;SDS011;58897;51.960;5.582;2023-04-15T07:05:10;10.93;;;5.93;;
12986;SDS011;58897;51.960;5.582;2023-04-15T07:07:36;13.63;;;7.57;;
12986;SDS011;58897;51.960;5.582;2023-04-15T07:10:03;10.60;;;6.63;;
12986;SDS011;58897;51.960;5.582;2023-04-15T07:12:30;16.07;;;7.73;;
12986;SDS011;58897;51.960;5.582;2023-04-15T07:14:57;15.53;;;7.80;;
12986;SDS011;58897;51.960;5.582;2023-04-15T07:17:24;14.27;;;7.50;;
12986;SDS011;58897;51.960;5.582;2023-04-15T07:19:51;13.73;;;7.23;;
12986;SDS011;58897;51.960;5.582;2023-04-15T07:22:17;12.90;;;6.90;;
12986;SDS011;58897;51.960;5.582;2023-04-15T07:24:44;13.80;;;7.27;;
12986;SDS011;58897;51.960;5.582;2023-04-15T07:27:11;10.27;;;6.90;;
12986;SDS011;58897;51.960;5.582;2023-04-15T07:29:38;10.90;;;6.43;;
12986;SDS011;58897;51.960;5.582;2023-04-15T07:32:05;11.93;;;6.43;;
12986;SDS011;58897;51.960;5.582;2023-04-15T07:34:32;10.80;;;6.40;;
12986;SDS011;58897;51.960;5.582;2023-04-15T07:36:59;16.33;;;8.50;;
12986;SDS011;58897;51.960;5.582;2023-04-15T07:39:25;12.00;;;6.93;;
12986;SDS011;58897;51.960;5.582;2023-04-15T07:41:52;11.67;;;6.30;;
12986;SDS011;58897;51.960;5.582;2023-04-15T07:44:19;10.83;;;6.37;;
12986;SDS011;58897;51.960;5.582;2023-04-15T07:46:46;10.63;;;5.20;;
12986;SDS011;58897;51.960;5.582;2023-04-15T07:49:13;14.37;;;8.13;;
12986;SDS011;58897;51.960;5.582;2023-04-15T07:51:39;10.90;;;6.07;;
12986;SDS011;58897;51.960;5.582;2023-04-15T07:54:06;11.13;;;5.97;;
12986;SDS011;58897;51.960;5.582;2023-04-15T07:56:33;10.57;;;5.90;;
12986;SDS011;58897;51.960;5.582;2023-04-15T07:58:59;12.17;;;6.50;;
12986;SDS011;58897;51.960;5.582;2023-04-15T08:01:28;10.43;;;5.50;;
12986;SDS011;58897;51.960;5.582;2023-04-15T08:03:54;7.73;;;4.33;;
12986;SDS011;58897;51.960;5.582;2023-04-15T08:06:21;5.37;;;3.53;;
12986;SDS011;58897;51.960;5.582;2023-04-15T08:08:48;8.17;;;4.93;;
12986;SDS011;58897;51.960;5.582;2023-04-15T08:11:15;7.00;;;4.27;;
12986;SDS011;58897;51.960;5.582;2023-04-15T08:13:42;8.03;;;3.93;;
12986;SDS011;58897;51.960;5.582;2023-04-15T08:18:50;8.37;;;4.77;;
12986;SDS011;58897;51.960;5.582;2023-04-15T08:21:18;8.20;;;4.17;;
12986;SDS011;58897;51.960;5.582;2023-04-15T08:23:45;11.63;;;6.07;;
12986;SDS011;58897;51.960;5.582;2023-04-15T08:26:13;5.37;;;3.77;;
12986;SDS011;58897;51.960;5.582;2023-04-15T08:28:41;11.80;;;5.57;;
12986;SDS011;58897;51.960;5.582;2023-04-15T08:31:08;8.80;;;5.20;;
12986;SDS011;58897;51.960;5.582;2023-04-15T08:33:35;12.87;;;6.27;;
12986;SDS011;58897;51.960;5.582;2023-04-15T08:36:02;9.33;;;5.70;;
12986;SDS011;58897;51.960;5.582;2023-04-15T08:38:29;8.43;;;4.70;;
12986;SDS011;58897;51.960;5.582;2023-04-15T08:40:57;9.20;;;5.40;;
12986;SDS011;58897;51.960;5.582;2023-04-15T08:43:31;9.20;;;4.93;;
12986;SDS011;58897;51.960;5.582;2023-04-15T08:45:59;9.23;;;4.93;;
12986;SDS011;58897;51.960;5.582;2023-04-15T08:48:28;9.03;;;4.83;;
12986;SDS011;58897;51.960;5.582;2023-04-15T08:50:57;10.20;;;5.33;;
12986;SDS011;58897;51.960;5.582;2023-04-15T08:53:25;8.17;;;4.63;;
12986;SDS011;58897;51.960;5.582;2023-04-15T08:55:51;9.97;;;4.97;;
12986;SDS011;58897;51.960;5.582;2023-04-15T08:58:22;8.67;;;4.70;;
12986;SDS011;58897;51.960;5.582;2023-04-15T09:00:50;10.07;;;5.70;;
12986;SDS011;58897;51.960;5.582;2023-04-15T09:03:17;8.03;;;4.67;;
12986;SDS011;58897;51.960;5.582;2023-04-15T09:05:44;12.73;;;8.67;;
12986;SDS011;58897;51.960;5.582;2023-04-15T09:08:12;5.57;;;4.03;;
12986;SDS011;58897;51.960;5.582;2023-04-15T09:10:38;8.00;;;4.77;;
12986;SDS011;58897;51.960;5.582;2023-04-15T09:13:05;9.80;;;5.43;;
12986;SDS011;58897;51.960;5.582;2023-04-15T09:15:32;8.20;;;5.17;;
12986;SDS011;58897;51.960;5.582;2023-04-15T09:17:58;7.37;;;4.70;;
12986;SDS011;58897;51.960;5.582;2023-04-15T09:20:25;7.37;;;4.83;;
12986;SDS011;58897;51.960;5.582;2023-04-15T09:22:52;5.90;;;4.23;;
12986;SDS011;58897;51.960;5.582;2023-04-15T09:27:59;10.93;;;5.63;;
12986;SDS011;58897;51.960;5.582;2023-04-15T09:30:27;9.97;;;4.73;;
12986;SDS011;58897;51.960;5.582;2023-04-15T09:35:26;7.10;;;3.93;;
12986;SDS011;58897;51.960;5.582;2023-04-15T09:38:04;5.17;;;3.67;;
12986;SDS011;58897;51.960;5.582;2023-04-15T09:43:07;6.87;;;4.10;;
12986;SDS011;58897;51.960;5.582;2023-04-15T09:45:35;6.03;;;3.40;;
12986;SDS011;58897;51.960;5.582;2023-04-15T09:50:48;17.10;;;5.40;;
12986;SDS011;58897;51.960;5.582;2023-04-15T09:53:19;3.07;;;2.37;;
12986;SDS011;58897;51.960;5.582;2023-04-15T09:55:50;7.33;;;4.27;;
12986;SDS011;58897;51.960;5.582;2023-04-15T09:58:23;6.97;;;2.90;;
12986;SDS011;58897;51.960;5.582;2023-04-15T10:00:52;5.77;;;3.67;;
12986;SDS011;58897;51.960;5.582;2023-04-15T10:03:21;5.47;;;2.87;;
12986;SDS011;58897;51.960;5.582;2023-04-15T10:05:52;6.50;;;3.87;;
12986;SDS011;58897;51.960;5.582;2023-04-15T10:08:22;4.83;;;3.10;;
12986;SDS011;58897;51.960;5.582;2023-04-15T10:10:53;6.10;;;4.20;;
12986;SDS011;58897;51.960;5.582;2023-04-15T10:13:20;5.50;;;3.50;;
12986;SDS011;58897;51.960;5.582;2023-04-15T10:15:56;5.43;;;3.30;;
12986;SDS011;58897;51.960;5.582;2023-04-15T10:18:25;3.93;;;2.67;;
12986;SDS011;58897;51.960;5.582;2023-04-15T10:20:53;7.10;;;2.70;;
12986;SDS011;58897;51.960;5.582;2023-04-15T10:23:21;4.67;;;2.83;;
12986;SDS011;58897;51.960;5.582;2023-04-15T10:25:50;12.97;;;4.60;;
12986;SDS011;58897;51.960;5.582;2023-04-15T10:28:18;6.37;;;3.07;;
12986;SDS011;58897;51.960;5.582;2023-04-15T10:30:46;4.50;;;2.90;;
12986;SDS011;58897;51.960;5.582;2023-04-15T10:33:16;4.17;;;2.87;;
12986;SDS011;58897;51.960;5.582;2023-04-15T10:35:45;4.87;;;2.93;;
12986;SDS011;58897;51.960;5.582;2023-04-15T10:41:25;5.67;;;3.43;;
12986;SDS011;58897;51.960;5.582;2023-04-15T10:43:54;7.60;;;3.47;;
12986;SDS011;58897;51.960;5.582;2023-04-15T10:49:07;5.57;;;3.77;;
12986;SDS011;58897;51.960;5.582;2023-04-15T10:51:35;4.77;;;3.10;;
12986;SDS011;58897;51.960;5.582;2023-04-15T10:59:32;6.73;;;3.73;;
12986;SDS011;58897;51.960;5.582;2023-04-15T11:02:03;3.33;;;3.00;;
12986;SDS011;58897;51.960;5.582;2023-04-15T11:05:17;5.87;;;3.57;;
12986;SDS011;58897;51.960;5.582;2023-04-15T11:07:37;4.87;;;3.50;;
12986;SDS011;58897;51.960;5.582;2023-04-15T11:12:44;5.57;;;3.33;;
12986;SDS011;58897;51.960;5.582;2023-04-15T11:17:56;6.20;;;3.73;;
12986;SDS011;58897;51.960;5.582;2023-04-15T11:20:44;5.90;;;4.30;;
12986;SDS011;58897;51.960;5.582;2023-04-15T11:23:19;7.83;;;3.33;;
12986;SDS011;58897;51.960;5.582;2023-04-15T11:25:57;5.20;;;3.17;;
12986;SDS011;58897;51.960;5.582;2023-04-15T11:28:25;4.20;;;2.93;;
12986;SDS011;58897;51.960;5.582;2023-04-15T11:30:53;7.20;;;3.93;;
12986;SDS011;58897;51.960;5.582;2023-04-15T11:33:21;5.87;;;3.50;;
12986;SDS011;58897;51.960;5.582;2023-04-15T11:35:49;4.70;;;3.10;;
12986;SDS011;58897;51.960;5.582;2023-04-15T11:38:17;4.47;;;2.97;;
12986;SDS011;58897;51.960;5.582;2023-04-15T11:40:44;5.30;;;3.30;;
12986;SDS011;58897;51.960;5.582;2023-04-15T11:43:13;3.90;;;2.97;;
12986;SDS011;58897;51.960;5.582;2023-04-15T11:45:56;4.53;;;3.47;;
12986;SDS011;58897;51.960;5.582;2023-04-15T11:48:27;5.10;;;2.87;;
12986;SDS011;58897;51.960;5.582;2023-04-15T11:50:56;4.70;;;3.50;;
12986;SDS011;58897;51.960;5.582;2023-04-15T11:56:10;6.10;;;3.37;;
12986;SDS011;58897;51.960;5.582;2023-04-15T11:58:47;4.80;;;3.33;;
12986;SDS011;58897;51.960;5.582;2023-04-15T12:01:17;4.80;;;3.20;;
12986;SDS011;58897;51.960;5.582;2023-04-15T12:03:44;5.67;;;3.07;;
12986;SDS011;58897;51.960;5.582;2023-04-15T12:06:14;3.13;;;2.40;;
12986;SDS011;58897;51.960;5.582;2023-04-15T12:11:36;5.33;;;3.00;;
12986;SDS011;58897;51.960;5.582;2023-04-15T12:16:57;3.33;;;2.50;;
12986;SDS011;58897;51.960;5.582;2023-04-15T12:19:35;6.00;;;3.33;;
12986;SDS011;58897;51.960;5.582;2023-04-15T12:22:04;5.27;;;3.33;;
12986;SDS011;58897;51.960;5.582;2023-04-15T12:24:32;5.57;;;2.70;;
12986;SDS011;58897;51.960;5.582;2023-04-15T12:27:01;7.57;;;4.47;;
12986;SDS011;58897;51.960;5.582;2023-04-15T12:29:29;4.97;;;2.77;;
12986;SDS011;58897;51.960;5.582;2023-04-15T12:31:57;6.60;;;3.87;;
12986;SDS011;58897;51.960;5.582;2023-04-15T12:34:30;4.77;;;2.97;;
12986;SDS011;58897;51.960;5.582;2023-04-15T12:36:58;7.00;;;4.20;;
12986;SDS011;58897;51.960;5.582;2023-04-15T12:39:27;5.33;;;3.00;;
12986;SDS011;58897;51.960;5.582;2023-04-15T12:41:57;4.53;;;3.10;;
12986;SDS011;58897;51.960;5.582;2023-04-15T12:44:26;4.00;;;2.50;;
12986;SDS011;58897;51.960;5.582;2023-04-15T12:46:53;4.67;;;2.33;;
12986;SDS011;58897;51.960;5.582;2023-04-15T12:49:21;4.37;;;2.43;;
12986;SDS011;58897;51.960;5.582;2023-04-15T12:51:50;5.23;;;2.60;;
12986;SDS011;58897;51.960;5.582;2023-04-15T12:54:18;4.07;;;2.50;;
12986;SDS011;58897;51.960;5.582;2023-04-15T12:56:45;4.70;;;2.70;;
12986;SDS011;58897;51.960;5.582;2023-04-15T12:59:13;3.60;;;2.63;;
12986;SDS011;58897;51.960;5.582;2023-04-15T13:01:41;2.37;;;1.77;;
12986;SDS011;58897;51.960;5.582;2023-04-15T13:04:08;5.10;;;2.80;;
12986;SDS011;58897;51.960;5.582;2023-04-15T13:06:35;3.53;;;2.13;;
12986;SDS011;58897;51.960;5.582;2023-04-15T13:09:02;4.00;;;2.80;;
12986;SDS011;58897;51.960;5.582;2023-04-15T13:11:31;4.27;;;2.37;;
12986;SDS011;58897;51.960;5.582;2023-04-15T13:14:02;4.30;;;2.87;;
12986;SDS011;58897;51.960;5.582;2023-04-15T13:16:30;5.13;;;2.27;;
12986;SDS011;58897;51.960;5.582;2023-04-15T13:18:58;4.33;;;2.33;;
12986;SDS011;58897;51.960;5.582;2023-04-15T13:21:26;4.90;;;2.07;;
12986;SDS011;58897;51.960;5.582;2023-04-15T13:23:53;5.70;;;2.73;;
12986;SDS011;58897;51.960;5.582;2023-04-15T13:26:20;4.40;;;2.30;;
12986;SDS011;58897;51.960;5.582;2023-04-15T13:28:47;3.43;;;2.23;;
12986;SDS011;58897;51.960;5.582;2023-04-15T13:31:13;11.27;;;3.13;;
12986;SDS011;58897;51.960;5.582;2023-04-15T13:33:40;9.70;;;3.50;;
12986;SDS011;58897;51.960;5.582;2023-04-15T13:36:07;5.17;;;2.53;;
12986;SDS011;58897;51.960;5.582;2023-04-15T13:38:33;7.87;;;2.73;;
12986;SDS011;58897;51.960;5.582;2023-04-15T13:41:00;6.67;;;3.57;;
12986;SDS011;58897;51.960;5.582;2023-04-15T13:43:27;4.37;;;2.43;;
12986;SDS011;58897;51.960;5.582;2023-04-15T13:45:53;5.83;;;2.70;;
12986;SDS011;58897;51.960;5.582;2023-04-15T13:48:20;3.37;;;1.83;;
12986;SDS011;58897;51.960;5.582;2023-04-15T13:50:47;3.47;;;2.00;;
12986;SDS011;58897;51.960;5.582;2023-04-15T13:53:13;2.93;;;1.53;;
12986;SDS011;58897;51.960;5.582;2023-04-15T13:55:40;3.93;;;2.30;;
12986;SDS011;58897;51.960;5.582;2023-04-15T13:58:08;5.17;;;2.00;;
12986;SDS011;58897;51.960;5.582;2023-04-15T14:00:35;6.30;;;2.27;;
12986;SDS011;58897;51.960;5.582;2023-04-15T14:03:01;4.47;;;2.77;;
12986;SDS011;58897;51.960;5.582;2023-04-15T14:05:28;4.27;;;2.13;;
12986;SDS011;58897;51.960;5.582;2023-04-15T14:07:55;4.77;;;2.87;;
12986;SDS011;58897;51.960;5.582;2023-04-15T14:10:22;4.87;;;2.60;;
12986;SDS011;58897;51.960;5.582;2023-04-15T14:12:48;7.13;;;3.43;;
12986;SDS011;58897;51.960;5.582;2023-04-15T14:15:16;6.33;;;3.23;;
12986;SDS011;58897;51.960;5.582;2023-04-15T14:17:42;8.20;;;3.03;;
12986;SDS011;58897;51.960;5.582;2023-04-15T14:20:09;6.60;;;3.23;;
12986;SDS011;58897;51.960;5.582;2023-04-15T14:22:36;4.97;;;2.50;;
12986;SDS011;58897;51.960;5.582;2023-04-15T14:25:03;6.63;;;2.83;;
12986;SDS011;58897;51.960;5.582;2023-04-15T14:27:30;4.43;;;1.90;;
12986;SDS011;58897;51.960;5.582;2023-04-15T14:29:56;5.13;;;2.97;;
12986;SDS011;58897;51.960;5.582;2023-04-15T14:32:24;5.17;;;2.63;;
12986;SDS011;58897;51.960;5.582;2023-04-15T14:34:51;4.00;;;2.90;;
12986;SDS011;58897;51.960;5.582;2023-04-15T14:37:18;6.03;;;2.80;;
12986;SDS011;58897;51.960;5.582;2023-04-15T14:39:44;8.30;;;3.17;;
12986;SDS011;58897;51.960;5.582;2023-04-15T14:42:11;5.37;;;2.57;;
12986;SDS011;58897;51.960;5.582;2023-04-15T14:44:37;4.97;;;2.10;;
12986;SDS011;58897;51.960;5.582;2023-04-15T14:47:04;6.13;;;2.53;;
12986;SDS011;58897;51.960;5.582;2023-04-15T14:49:31;6.87;;;2.53;;
12986;SDS011;58897;51.960;5.582;2023-04-15T14:51:57;4.23;;;2.03;;
12986;SDS011;58897;51.960;5.582;2023-04-15T14:54:24;4.93;;;2.27;;
12986;SDS011;58897;51.960;5.582;2023-04-15T14:56:50;2.53;;;1.80;;
12986;SDS011;58897;51.960;5.582;2023-04-15T14:59:17;7.53;;;3.67;;
12986;SDS011;58897;51.960;5.582;2023-04-15T15:01:43;6.83;;;2.73;;
12986;SDS011;58897;51.960;5.582;2023-04-15T15:04:10;5.00;;;2.73;;
12986;SDS011;58897;51.960;5.582;2023-04-15T15:06:38;7.57;;;2.67;;
12986;SDS011;58897;51.960;5.582;2023-04-15T15:09:05;6.83;;;2.97;;
12986;SDS011;58897;51.960;5.582;2023-04-15T15:11:32;4.33;;;2.33;;
12986;SDS011;58897;51.960;5.582;2023-04-15T15:13:58;7.23;;;3.87;;
12986;SDS011;58897;51.960;5.582;2023-04-15T15:16:25;5.90;;;2.57;;
12986;SDS011;58897;51.960;5.582;2023-04-15T15:18:53;6.80;;;3.87;;
12986;SDS011;58897;51.960;5.582;2023-04-15T15:21:20;6.87;;;2.97;;